Our Location

356 (Felixstowe) Squadron SHQ,
Carr Road,
Felixstowe,
IP11 3RX

Tel: 01394 673419 Mon/Wed Evenings

email: This email address is being protected from spambots. You need JavaScript enabled to view it.

Air Cadet Magazine

Fx Cdt Futurepilot B&W

Absence Form

Cdt Hawk Pilot

Aviation Weather - Wattisham

[source: ADDS]
METAR
EGUW 251550Z 33015KT 9999 FEW045CB SCT050 09/M06 Q1012 BLU TEMPO 5000 SHRA BKN045CB =
TAF
TAF AMD EGUW 251429Z 2515/2524 31010KT 9999 SCT045 TEMPO 2515/2524 33015G25KT 7000 SHRA SCT015 SCT030TCU PROB30 TEMPO 2515/2520 4000 +SHRA SCT015 SCT030CB PROB30 2523/2524 SCT007 =
You are here: Home